Time,TemperatureF,DewpointF,PressureIn,WindDirection,WindDirectionDegrees,WindSpeedMPH,WindSpeedGustMPH,Humidity,HourlyPrecipIn,Conditions,Clouds,dailyrainin,SolarRadiationWatts/m^2,SoftwareType,DateUTC
2013-07-16 11:01:00,78.0,37.0,-100.00,ESE,110,5.0,11.0,23,0.00,,,0.00,913.000000,,2013-07-16 18:01:00,
2013-07-16 11:11:00,78.0,37.0,-100.00,ESE,110,5.0,11.0,23,0.00,,,0.00,913.000000,,2013-07-16 18:11:00,
2013-07-16 11:22:00,78.0,37.0,-100.00,ESE,110,5.0,11.0,23,0.00,,,0.00,913.000000,,2013-07-16 18:22:00,
2013-07-16 11:32:00,78.0,37.0,-100.00,ESE,110,5.0,11.0,23,0.00,,,0.00,913.000000,,2013-07-16 18:32:00,
2013-07-16 12:01:00,77.0,39.0,-100.00,ESE,103,9.0,14.0,26,0.00,,,0.00,1051.000000,,2013-07-16 19:01:00,
2013-07-16 12:11:00,77.0,39.0,-100.00,ESE,103,9.0,14.0,26,0.00,,,0.00,1051.000000,,2013-07-16 19:11:00,
2013-07-16 12:22:00,77.0,39.0,-100.00,ESE,103,9.0,14.0,26,0.00,,,0.00,1051.000000,,2013-07-16 19:22:00,
2013-07-16 12:32:00,77.0,39.0,-100.00,ESE,103,9.0,14.0,26,0.00,,,0.00,1051.000000,,2013-07-16 19:32:00,
2013-07-16 13:03:00,76.0,39.0,-100.00,ESE,108,7.0,15.0,26,0.00,,,0.00,1173.000000,,2013-07-16 20:03:00,
2013-07-16 13:11:00,76.0,39.0,-100.00,ESE,108,7.0,15.0,26,0.00,,,0.00,1173.000000,,2013-07-16 20:11:00,
2013-07-16 13:22:00,76.0,39.0,-100.00,ESE,108,7.0,15.0,26,0.00,,,0.00,1173.000000,,2013-07-16 20:22:00,
2013-07-16 13:32:00,76.0,39.0,-100.00,ESE,108,7.0,15.0,26,0.00,,,0.00,1173.000000,,2013-07-16 20:32:00,
2013-07-16 14:11:00,78.0,37.0,-100.00,ESE,115,5.0,13.0,23,0.00,,,0.00,1187.000000,,2013-07-16 21:11:00,
2013-07-16 14:22:00,78.0,37.0,-100.00,ESE,115,5.0,13.0,23,0.00,,,0.00,1187.000000,,2013-07-16 21:22:00,
2013-07-16 14:32:00,78.0,37.0,-100.00,ESE,115,5.0,13.0,23,0.00,,,0.00,1187.000000,,2013-07-16 21:32:00,
2013-07-16 15:11:00,78.0,38.0,-100.00,ESE,109,6.0,13.0,24,0.00,,,0.00,1156.000000,,2013-07-16 22:11:00,
2013-07-16 15:22:00,78.0,38.0,-100.00,ESE,109,6.0,13.0,24,0.00,,,0.00,1156.000000,,2013-07-16 22:22:00,
2013-07-16 15:33:00,78.0,38.0,-100.00,ESE,109,6.0,13.0,24,0.00,,,0.00,1156.000000,,2013-07-16 22:33:00,
2013-07-16 16:01:00,80.0,27.0,-100.00,ESE,108,7.0,14.0,14,0.00,,,0.00,1068.000000,,2013-07-16 23:01:00,
2013-07-16 16:11:00,80.0,27.0,-100.00,ESE,108,7.0,14.0,14,0.00,,,0.00,1068.000000,,2013-07-16 23:11:00,
2013-07-16 16:22:00,80.0,27.0,-100.00,ESE,108,7.0,14.0,14,0.00,,,0.00,1068.000000,,2013-07-16 23:22:00,
2013-07-16 16:32:00,80.0,27.0,-100.00,ESE,108,7.0,14.0,14,0.00,,,0.00,1068.000000,,2013-07-16 23:32:00,
2013-07-16 17:01:00,77.0,29.0,-100.00,ESE,112,5.0,13.0,17,0.00,,,0.00,909.000000,,2013-07-17 00:01:00,
2013-07-16 17:11:00,77.0,29.0,-100.00,ESE,112,5.0,13.0,17,0.00,,,0.00,909.000000,,2013-07-17 00:11:00,
2013-07-16 17:22:00,77.0,29.0,-100.00,ESE,112,5.0,13.0,17,0.00,,,0.00,909.000000,,2013-07-17 00:22:00,
2013-07-16 17:33:00,77.0,29.0,-100.00,ESE,112,5.0,13.0,17,0.00,,,0.00,909.000000,,2013-07-17 00:33:00,
2013-07-16 18:01:00,75.0,29.0,-100.00,ESE,122,6.0,13.0,18,0.00,,,0.00,695.000000,,2013-07-17 01:01:00,
2013-07-16 18:11:00,75.0,29.0,-100.00,ESE,122,6.0,13.0,18,0.00,,,0.00,695.000000,,2013-07-17 01:11:00,
2013-07-16 18:22:00,75.0,29.0,-100.00,ESE,122,6.0,13.0,18,0.00,,,0.00,695.000000,,2013-07-17 01:22:00,
2013-07-16 18:32:00,75.0,29.0,-100.00,ESE,122,6.0,13.0,18,0.00,,,0.00,695.000000,,2013-07-17 01:32:00,
2013-07-16 19:11:00,69.0,34.0,-100.00,ESE,120,4.0,12.0,27,0.00,,,0.00,325.000000,,2013-07-17 02:11:00,
2013-07-16 19:22:00,69.0,34.0,-100.00,ESE,120,4.0,12.0,27,0.00,,,0.00,325.000000,,2013-07-17 02:22:00,
2013-07-16 19:32:00,69.0,34.0,-100.00,ESE,120,4.0,12.0,27,0.00,,,0.00,325.000000,,2013-07-17 02:32:00,
2013-07-16 20:01:00,64.0,34.0,-100.00,NW,312,0.0,10.0,32,0.00,,,0.00,31.000000,,2013-07-17 03:01:00,
2013-07-16 20:11:00,64.0,34.0,-100.00,NW,312,0.0,10.0,32,0.00,,,0.00,31.000000,,2013-07-17 03:11:00,
2013-07-16 20:22:00,64.0,34.0,-100.00,NW,312,0.0,10.0,32,0.00,,,0.00,31.000000,,2013-07-17 03:22:00,
2013-07-16 20:32:00,64.0,34.0,-100.00,NW,312,0.0,10.0,32,0.00,,,0.00,31.000000,,2013-07-17 03:32:00,
2013-07-16 21:11:00,59.0,31.0,-100.00,WNW,292,0.0,5.0,35,0.00,,,-99.99,6.000000,,2013-07-17 04:11:00,
2013-07-16 21:22:00,59.0,31.0,-100.00,WNW,292,0.0,5.0,35,0.00,,,-99.99,6.000000,,2013-07-17 04:22:00,
2013-07-16 21:32:00,59.0,31.0,-100.00,WNW,292,0.0,5.0,35,0.00,,,-99.99,6.000000,,2013-07-17 04:32:00,
2013-07-16 22:02:00,53.0,27.0,-100.00,WNW,282,0.0,4.0,37,0.00,,,-99.99,0.000000,,2013-07-17 05:02:00,
2013-07-16 22:11:00,53.0,27.0,-100.00,WNW,282,0.0,4.0,37,0.00,,,-99.99,0.000000,,2013-07-17 05:11:00,
2013-07-16 22:21:00,53.0,27.0,-100.00,WNW,282,0.0,4.0,37,0.00,,,-99.99,0.000000,,2013-07-17 05:21:00,
2013-07-16 22:32:00,53.0,27.0,-100.00,WNW,282,0.0,4.0,37,0.00,,,-99.99,0.000000,,2013-07-17 05:32:00,
2013-07-16 23:01:00,51.0,26.0,-100.00,WNW,288,3.0,5.0,38,0.00,,,-99.99,0.000000,,2013-07-17 06:01:00,
2013-07-16 23:11:00,51.0,26.0,-100.00,WNW,288,3.0,5.0,38,0.00,,,-99.99,0.000000,,2013-07-17 06:11:00,
2013-07-16 23:22:00,51.0,26.0,-100.00,WNW,288,3.0,5.0,38,0.00,,,-99.99,0.000000,,2013-07-17 06:22:00,
2013-07-16 23:32:00,51.0,26.0,-100.00,WNW,288,3.0,5.0,38,0.00,,,-99.99,0.000000,,2013-07-17 06:32:00,